createdAt,value
2019-05-21T00:00:27.036Z,39.03
2019-05-21T00:02:55.675Z,35.53
2019-05-21T00:05:24.302Z,32.87
2019-05-21T00:07:52.956Z,36.47
2019-05-21T00:10:21.526Z,31.83
2019-05-21T00:12:50.166Z,30.77
2019-05-21T00:15:18.798Z,31.37
2019-05-21T00:17:47.326Z,31.80
2019-05-21T00:20:16.353Z,30.30
2019-05-21T00:22:45.041Z,28.50
2019-05-21T00:25:16.999Z,28.43
2019-05-21T00:27:44.353Z,28.47
2019-05-21T00:30:49.680Z,28.70
2019-05-21T00:33:54.966Z,27.20
2019-05-21T00:37:01.338Z,26.53
2019-05-21T00:40:06.078Z,27.53
2019-05-21T00:42:37.654Z,29.53
2019-05-21T00:45:09.276Z,29.17
2019-05-21T00:47:39.446Z,24.43
2019-05-21T00:50:08.446Z,30.53
2019-05-21T00:52:36.941Z,29.30
2019-05-21T00:55:08.442Z,27.93
2019-05-21T00:57:36.926Z,29.83
2019-05-21T01:00:07.148Z,29.60
2019-05-21T01:02:35.763Z,29.93
2019-05-21T01:05:05.188Z,31.07
2019-05-21T01:07:33.677Z,26.90
2019-05-21T01:10:02.543Z,28.80
2019-05-21T01:12:31.245Z,28.90
2019-05-21T01:14:59.797Z,35.77
2019-05-21T01:17:28.284Z,33.17
2019-05-21T01:19:56.859Z,31.73
2019-05-21T01:22:25.369Z,29.23
2019-05-21T01:24:54.270Z,31.37
2019-05-21T01:27:22.859Z,34.00
2019-05-21T01:29:51.497Z,33.87
2019-05-21T01:32:20.137Z,28.73
2019-05-21T01:34:48.646Z,30.20
2019-05-21T01:37:17.204Z,32.83
2019-05-21T01:39:45.783Z,27.73
2019-05-21T01:42:14.255Z,25.47
2019-05-21T01:44:42.743Z,28.73
2019-05-21T01:47:11.387Z,28.80
2019-05-21T01:49:39.961Z,25.37
2019-05-21T01:52:08.471Z,27.60
2019-05-21T01:54:36.952Z,23.27
2019-05-21T01:57:05.465Z,30.83
2019-05-21T01:59:34.034Z,27.30
2019-05-21T02:02:02.560Z,27.10
2019-05-21T02:04:31.216Z,32.23
2019-05-21T02:06:59.859Z,30.80
2019-05-21T02:09:28.822Z,26.77
2019-05-21T02:11:57.309Z,31.40
2019-05-21T02:14:25.938Z,31.43
2019-05-21T02:16:54.583Z,31.43
2019-05-21T02:19:23.260Z,29.10
2019-05-21T02:21:51.966Z,29.53
2019-05-21T02:24:20.515Z,36.63
2019-05-21T02:26:49.132Z,32.30
2019-05-21T02:29:17.813Z,31.37
2019-05-21T02:31:46.370Z,31.60
2019-05-21T02:34:14.901Z,27.83
2019-05-21T02:36:43.601Z,26.97
2019-05-21T02:39:12.217Z,25.70
2019-05-21T02:41:40.875Z,24.33
2019-05-21T02:44:09.453Z,23.43
2019-05-21T02:46:38.120Z,26.57
2019-05-21T02:49:06.748Z,26.13
2019-05-21T02:51:35.295Z,22.00
2019-05-21T02:54:03.863Z,24.97
2019-05-21T02:56:32.490Z,23.67
2019-05-21T02:59:00.956Z,27.03
2019-05-21T03:01:34.076Z,23.10
2019-05-21T03:04:02.679Z,24.37
2019-05-21T03:06:31.229Z,28.50
2019-05-21T03:08:59.932Z,25.40
2019-05-21T03:11:28.544Z,26.03
2019-05-21T03:13:57.070Z,24.13
2019-05-21T03:16:25.639Z,27.73
2019-05-21T03:18:54.210Z,27.93
2019-05-21T03:21:22.797Z,29.93
2019-05-21T03:23:51.382Z,30.73
2019-05-21T03:26:19.930Z,29.17
2019-05-21T03:28:48.567Z,36.63
2019-05-21T03:31:18.231Z,30.03
2019-05-21T03:33:46.789Z,30.37
2019-05-21T03:36:31.622Z,28.03
2019-05-21T03:38:45.656Z,29.67
2019-05-21T03:41:14.191Z,24.63
2019-05-21T03:43:42.742Z,25.00
2019-05-21T03:46:11.223Z,25.43
2019-05-21T03:48:39.806Z,26.40
2019-05-21T03:51:08.423Z,24.73
2019-05-21T03:53:37.015Z,26.90
2019-05-21T03:56:05.546Z,27.70
2019-05-21T03:58:34.056Z,22.67
2019-05-21T04:01:02.593Z,25.13
2019-05-21T04:03:31.129Z,27.90
2019-05-21T04:05:59.693Z,31.53
2019-05-21T04:08:28.233Z,29.60
2019-05-21T04:10:56.852Z,30.90
2019-05-21T04:13:25.749Z,31.07
2019-05-21T04:15:58.762Z,34.23
2019-05-21T04:18:32.079Z,28.43
2019-05-21T04:21:00.641Z,30.47
2019-05-21T04:23:29.261Z,25.33
2019-05-21T04:25:57.771Z,24.47
2019-05-21T04:28:26.341Z,22.23
2019-05-21T04:30:54.892Z,28.63
2019-05-21T04:33:23.493Z,23.50
2019-05-21T04:35:52.045Z,22.73
2019-05-21T04:38:20.605Z,23.57
2019-05-21T04:40:49.166Z,22.53
2019-05-21T04:43:17.673Z,24.70
2019-05-21T04:45:46.167Z,24.27
2019-05-21T04:48:14.724Z,23.80
2019-05-21T04:50:43.210Z,26.97
2019-05-21T04:53:11.766Z,23.83
2019-05-21T04:55:40.356Z,22.67
2019-05-21T04:58:08.890Z,23.63
2019-05-21T05:00:37.503Z,22.73
2019-05-21T05:03:06.124Z,21.10
2019-05-21T05:05:34.814Z,19.60
2019-05-21T05:08:03.478Z,17.87
2019-05-21T05:10:32.094Z,20.50
2019-05-21T05:13:00.728Z,18.60
2019-05-21T05:15:29.296Z,19.13
2019-05-21T05:17:57.860Z,17.77
2019-05-21T05:20:26.402Z,16.77
2019-05-21T05:22:54.906Z,19.43
2019-05-21T05:25:23.547Z,21.20
2019-05-21T05:27:52.069Z,20.33
2019-05-21T05:30:20.898Z,19.17
2019-05-21T05:32:50.141Z,22.27
2019-05-21T05:35:18.760Z,20.00
2019-05-21T05:37:48.988Z,21.63
2019-05-21T05:40:18.776Z,21.93
2019-05-21T05:42:47.339Z,22.77
2019-05-21T05:45:17.031Z,26.67
2019-05-21T05:47:45.540Z,22.73
2019-05-21T05:50:16.175Z,22.80
2019-05-21T05:52:44.737Z,21.77
2019-05-21T05:55:13.508Z,22.60
2019-05-21T05:57:42.057Z,23.17
2019-05-21T06:00:12.448Z,21.63
2019-05-21T06:02:41.131Z,17.90
2019-05-21T06:05:10.949Z,21.30
2019-05-21T06:07:39.459Z,19.00
2019-05-21T06:10:08.985Z,17.57
2019-05-21T06:12:37.552Z,21.83
2019-05-21T06:15:07.490Z,26.93
2019-05-21T06:17:36.034Z,23.57
2019-05-21T06:20:07.679Z,21.23
2019-05-21T06:22:36.331Z,23.57
2019-05-21T06:25:06.954Z,20.10
2019-05-21T06:27:35.852Z,20.07
2019-05-21T06:30:06.464Z,20.93
2019-05-21T06:32:35.018Z,19.83
2019-05-21T06:35:05.305Z,15.27
2019-05-21T06:37:33.887Z,17.57
2019-05-21T06:40:02.391Z,18.57
2019-05-21T06:42:30.941Z,15.03
2019-05-21T06:44:59.501Z,18.13
2019-05-21T06:47:27.996Z,19.87
2019-05-21T06:49:56.603Z,16.70
2019-05-21T06:52:25.143Z,19.43
2019-05-21T06:54:53.820Z,16.17
2019-05-21T06:57:22.399Z,19.80
2019-05-21T06:59:50.969Z,18.43
2019-05-21T07:02:19.545Z,18.13
2019-05-21T07:04:48.020Z,19.43
2019-05-21T07:07:16.529Z,17.50
2019-05-21T07:09:45.095Z,19.47
2019-05-21T07:12:13.592Z,19.47
2019-05-21T07:14:43.384Z,18.90
2019-05-21T07:17:11.974Z,19.33
2019-05-21T07:19:40.522Z,18.57
2019-05-21T07:22:13.090Z,17.83
2019-05-21T07:24:39.420Z,19.57
2019-05-21T07:27:08.001Z,20.77
2019-05-21T07:29:36.488Z,17.13
2019-05-21T07:32:05.085Z,19.17
2019-05-21T07:34:33.693Z,20.53
2019-05-21T07:37:02.171Z,20.83
2019-05-21T07:39:30.659Z,18.93
2019-05-21T07:41:59.159Z,21.83
2019-05-21T07:44:27.733Z,22.33
2019-05-21T07:46:56.219Z,26.53
2019-05-21T07:49:24.791Z,20.63
2019-05-21T07:51:53.338Z,19.27
2019-05-21T07:54:21.822Z,18.37
2019-05-21T07:56:50.394Z,21.23
2019-05-21T07:59:18.997Z,21.83
2019-05-21T08:01:48.399Z,21.07
2019-05-21T08:04:17.806Z,21.33
2019-05-21T08:06:46.387Z,24.17
2019-05-21T08:09:15.222Z,23.93
2019-05-21T08:11:46.894Z,22.27
2019-05-21T08:14:14.108Z,20.43
2019-05-21T08:16:42.828Z,21.90
2019-05-21T08:19:11.475Z,19.70
2019-05-21T08:21:40.017Z,19.90
2019-05-21T08:24:08.499Z,18.93
2019-05-21T08:26:37.054Z,19.50
2019-05-21T08:29:05.641Z,24.83
2019-05-21T08:31:34.280Z,18.97
2019-05-21T08:34:02.888Z,19.27
2019-05-21T08:36:31.403Z,25.97
2019-05-21T08:38:59.893Z,15.60
2019-05-21T08:41:28.391Z,20.17
2019-05-21T08:43:56.907Z,16.93
2019-05-21T08:46:25.479Z,16.73
2019-05-21T08:48:54.049Z,17.03
2019-05-21T08:51:22.627Z,22.03
2019-05-21T08:53:51.369Z,18.30
2019-05-21T08:56:19.875Z,18.27
2019-05-21T08:58:48.429Z,23.57
2019-05-21T09:01:16.995Z,18.77
2019-05-21T09:03:45.472Z,20.00
2019-05-21T09:06:14.001Z,18.93
2019-05-21T09:08:42.601Z,19.87
2019-05-21T09:11:11.229Z,18.47
2019-05-21T09:13:39.713Z,22.03
2019-05-21T09:16:08.247Z,19.43
2019-05-21T09:18:36.837Z,23.50
2019-05-21T09:21:05.476Z,18.97
2019-05-21T09:23:34.014Z,23.67
2019-05-21T09:26:02.599Z,16.57
2019-05-21T09:28:31.187Z,18.57
2019-05-21T09:31:02.017Z,21.90
2019-05-21T09:33:29.972Z,18.33
2019-05-21T09:35:58.453Z,22.13
2019-05-21T09:38:27.039Z,21.90
2019-05-21T09:40:55.599Z,19.47
2019-05-21T09:43:24.081Z,17.73
2019-05-21T09:45:52.643Z,16.37
2019-05-21T09:48:21.259Z,17.70
2019-05-21T09:50:49.907Z,15.90
2019-05-21T09:53:18.500Z,19.00
2019-05-21T09:55:47.057Z,16.60
2019-05-21T09:58:17.278Z,16.47
2019-05-21T10:00:50.268Z,17.10
2019-05-21T10:03:20.462Z,15.50
2019-05-21T10:05:49.042Z,13.83
2019-05-21T10:08:17.561Z,16.93
2019-05-21T10:10:46.080Z,14.30
2019-05-21T10:13:14.626Z,11.73
2019-05-21T10:15:43.205Z,14.30
2019-05-21T10:18:11.704Z,15.60
2019-05-21T10:20:40.332Z,11.87
2019-05-21T10:23:08.860Z,12.87
2019-05-21T10:25:37.440Z,14.03
2019-05-21T10:28:06.107Z,11.90
2019-05-21T10:30:34.654Z,16.23
2019-05-21T10:33:03.208Z,15.10
2019-05-21T10:35:31.797Z,22.33
2019-05-21T10:38:00.305Z,12.10
2019-05-21T10:40:28.900Z,13.90
2019-05-21T10:42:57.401Z,15.33
2019-05-21T10:45:25.909Z,12.83
2019-05-21T10:47:54.700Z,13.23
2019-05-21T10:50:23.340Z,12.07
2019-05-21T10:52:51.865Z,12.30
2019-05-21T10:55:20.420Z,11.90
2019-05-21T10:57:48.975Z,17.43
2019-05-21T11:00:22.921Z,13.23
2019-05-21T11:02:54.928Z,15.17
2019-05-21T11:05:43.472Z,15.40
2019-05-21T11:08:23.502Z,16.17
2019-05-21T11:10:43.311Z,14.30
2019-05-21T11:13:11.877Z,14.33
2019-05-21T11:15:40.502Z,14.03
2019-05-21T11:18:10.935Z,12.47
2019-05-21T11:20:39.469Z,11.70
2019-05-21T11:23:08.685Z,10.97
2019-05-21T11:25:37.184Z,13.00
2019-05-21T11:28:06.317Z,11.33
2019-05-21T11:30:35.119Z,12.57
2019-05-21T11:33:03.704Z,14.50
2019-05-21T11:35:35.589Z,11.90
2019-05-21T11:38:02.504Z,13.03
2019-05-21T11:40:31.450Z,10.23
2019-05-21T11:42:59.934Z,13.13
2019-05-21T11:45:32.352Z,11.80
2019-05-21T11:47:58.780Z,11.57
2019-05-21T11:50:27.314Z,12.10
2019-05-21T11:52:55.821Z,15.67
2019-05-21T11:55:24.415Z,13.10
2019-05-21T11:57:52.956Z,11.23
2019-05-21T12:00:23.362Z,12.90
2019-05-21T12:02:51.918Z,12.47
2019-05-21T12:05:20.537Z,12.03
2019-05-21T12:07:49.115Z,15.07
2019-05-21T12:10:17.653Z,11.23
2019-05-21T12:12:46.251Z,10.87
2019-05-21T12:15:15.199Z,14.70
2019-05-21T12:17:43.761Z,13.93
2019-05-21T12:20:13.008Z,12.00
2019-05-21T12:22:41.545Z,11.60
2019-05-21T12:25:10.568Z,13.23
2019-05-21T12:27:39.262Z,15.63
2019-05-21T12:30:08.927Z,11.60
2019-05-21T12:32:37.585Z,14.70
2019-05-21T12:35:07.149Z,9.77
2019-05-21T12:37:35.631Z,9.53
2019-05-21T12:40:06.833Z,10.50
2019-05-21T12:42:35.400Z,9.70
2019-05-21T12:45:05.419Z,11.60
2019-05-21T12:47:34.077Z,12.07
2019-05-21T12:50:02.726Z,11.93
2019-05-21T12:52:33.797Z,11.33
2019-05-21T12:55:01.809Z,11.27
2019-05-21T12:57:30.437Z,10.23
2019-05-21T12:59:58.980Z,10.03
2019-05-21T13:02:27.541Z,9.70
2019-05-21T13:04:56.186Z,9.67
2019-05-21T13:07:24.747Z,10.23
2019-05-21T13:09:53.299Z,12.00
2019-05-21T13:12:21.875Z,9.67
2019-05-21T13:14:50.356Z,9.57
2019-05-21T13:17:18.925Z,13.70
2019-05-21T13:19:47.571Z,12.20
2019-05-21T13:22:16.106Z,10.77
2019-05-21T13:24:44.688Z,8.80
2019-05-21T13:27:13.194Z,9.90
2019-05-21T13:29:41.708Z,10.10
2019-05-21T13:32:10.306Z,10.50
2019-05-21T13:34:38.852Z,11.83
2019-05-21T13:37:07.488Z,11.40
2019-05-21T13:39:48.870Z,10.33
2019-05-21T13:42:06.190Z,13.57
2019-05-21T13:44:34.759Z,12.37
2019-05-21T13:47:03.495Z,12.00
2019-05-21T13:49:32.116Z,14.53
2019-05-21T13:52:00.685Z,8.73
2019-05-21T13:54:29.226Z,10.10
2019-05-21T13:56:57.733Z,10.77
2019-05-21T13:59:26.314Z,11.00
2019-05-21T14:01:54.977Z,11.03
2019-05-21T14:04:23.602Z,16.10
2019-05-21T14:06:52.304Z,13.73
2019-05-21T14:09:20.786Z,11.50
2019-05-21T14:11:49.289Z,10.20
2019-05-21T14:14:17.833Z,10.60
2019-05-21T14:16:46.386Z,11.67
2019-05-21T14:19:15.047Z,11.53
2019-05-21T14:21:44.165Z,11.27
2019-05-21T14:24:12.749Z,11.47
2019-05-21T14:26:41.247Z,9.07
2019-05-21T14:29:09.738Z,9.53
2019-05-21T14:31:38.218Z,9.37
2019-05-21T14:34:06.796Z,8.43
2019-05-21T14:36:35.437Z,9.63
2019-05-21T14:39:07.303Z,11.63
2019-05-21T14:41:35.849Z,14.13
2019-05-21T14:44:05.261Z,11.73
2019-05-21T14:46:33.743Z,15.67
2019-05-21T14:49:02.219Z,13.10
2019-05-21T14:51:30.720Z,11.70
2019-05-21T14:54:05.608Z,12.63
2019-05-21T14:56:34.176Z,10.97
2019-05-21T14:59:02.771Z,13.20
2019-05-21T15:01:31.354Z,10.87
2019-05-21T15:03:59.938Z,11.27
2019-05-21T15:06:28.475Z,11.40
2019-05-21T15:08:57.133Z,17.70
2019-05-21T15:11:25.712Z,12.30
2019-05-21T15:13:54.298Z,14.93
2019-05-21T15:16:22.877Z,11.83
2019-05-21T15:18:51.345Z,11.03
2019-05-21T15:21:21.496Z,12.30
2019-05-21T15:23:50.024Z,12.43
2019-05-21T15:26:18.569Z,12.80
2019-05-21T15:28:47.140Z,10.43
2019-05-21T15:31:15.684Z,10.50
2019-05-21T15:33:44.528Z,11.33
2019-05-21T15:36:13.040Z,11.93
2019-05-21T15:38:49.923Z,12.17
2019-05-21T15:41:12.734Z,12.50
2019-05-21T15:43:41.536Z,12.27
2019-05-21T15:46:10.902Z,14.57
2019-05-21T15:48:39.374Z,11.73
2019-05-21T15:51:08.016Z,10.83
2019-05-21T15:53:36.498Z,11.87
2019-05-21T15:56:05.077Z,12.07
2019-05-21T15:58:33.644Z,15.33
2019-05-21T16:01:02.137Z,19.17
2019-05-21T16:03:30.630Z,15.47
2019-05-21T16:06:00.296Z,14.67
2019-05-21T16:08:28.978Z,14.10
2019-05-21T16:10:57.514Z,15.13
2019-05-21T16:13:26.096Z,12.83
2019-05-21T16:15:55.233Z,12.07
2019-05-21T16:18:24.158Z,21.87
2019-05-21T16:20:52.732Z,16.30
2019-05-21T16:23:22.581Z,20.37
2019-05-21T16:25:52.604Z,16.00
2019-05-21T16:28:21.117Z,14.53
2019-05-21T16:30:49.663Z,16.47
2019-05-21T16:33:18.472Z,16.70
2019-05-21T16:35:46.970Z,13.57
2019-05-21T16:38:15.634Z,13.37
2019-05-21T16:40:45.617Z,14.80
2019-05-21T16:43:14.126Z,16.37
2019-05-21T16:45:42.776Z,19.80
2019-05-21T16:48:11.416Z,20.13
2019-05-21T16:50:40.059Z,18.27
2019-05-21T16:53:08.605Z,21.67
2019-05-21T16:55:37.233Z,17.17
2019-05-21T16:58:05.824Z,17.20
2019-05-21T17:00:34.471Z,18.80
2019-05-21T17:03:03.056Z,17.97
2019-05-21T17:05:31.598Z,14.97
2019-05-21T17:08:00.176Z,16.53
2019-05-21T17:10:29.524Z,15.20
2019-05-21T17:12:58.013Z,19.53
2019-05-21T17:15:26.604Z,17.30
2019-05-21T17:17:55.175Z,14.63
2019-05-21T17:20:23.818Z,15.50
2019-05-21T17:22:52.406Z,18.93
2019-05-21T17:25:21.767Z,16.23
2019-05-21T17:27:50.478Z,15.87
2019-05-21T17:30:19.635Z,14.10
2019-05-21T17:32:48.144Z,13.90
2019-05-21T17:35:17.604Z,15.27
2019-05-21T17:37:46.231Z,12.17
2019-05-21T17:40:15.778Z,14.10
2019-05-21T17:42:44.556Z,16.27
2019-05-21T17:45:13.806Z,11.50
2019-05-21T17:47:42.294Z,12.90
2019-05-21T17:50:11.529Z,11.23
2019-05-21T17:52:40.108Z,9.63
2019-05-21T17:55:09.021Z,11.73
2019-05-21T17:57:37.797Z,13.43
2019-05-21T18:00:10.424Z,11.47
2019-05-21T18:02:39.543Z,11.77
2019-05-21T18:05:09.206Z,15.00
2019-05-21T18:07:38.570Z,10.57
2019-05-21T18:10:09.228Z,12.00
2019-05-21T18:12:38.931Z,11.77
2019-05-21T18:15:10.302Z,11.57
2019-05-21T18:17:39.416Z,11.13
2019-05-21T18:20:09.789Z,10.10
2019-05-21T18:22:40.220Z,11.90
2019-05-21T18:25:10.188Z,9.57
2019-05-21T18:27:39.097Z,10.10
2019-05-21T18:30:09.333Z,9.30
2019-05-21T18:32:38.274Z,8.07
2019-05-21T18:35:08.580Z,9.90
2019-05-21T18:37:38.541Z,11.07
2019-05-21T18:40:10.873Z,11.33
2019-05-21T18:42:39.442Z,9.53
2019-05-21T18:45:09.883Z,9.43
2019-05-21T18:47:38.599Z,12.43
2019-05-21T18:50:08.869Z,12.87
2019-05-21T18:52:38.935Z,11.80
2019-05-21T18:55:07.864Z,11.93
2019-05-21T18:57:36.516Z,11.40
2019-05-21T19:00:10.533Z,14.60
2019-05-21T19:02:39.179Z,14.93
2019-05-21T19:05:08.500Z,15.73
2019-05-21T19:07:37.099Z,14.00
2019-05-21T19:10:10.344Z,12.10
2019-05-21T19:12:39.798Z,16.67
2019-05-21T19:15:10.244Z,14.27
2019-05-21T19:17:38.925Z,14.23
2019-05-21T19:20:09.725Z,16.90
2019-05-21T19:22:38.453Z,19.53
2019-05-21T19:25:08.556Z,14.13
2019-05-21T19:27:37.175Z,16.20
2019-05-21T19:30:07.930Z,13.60
2019-05-21T19:32:36.582Z,18.27
2019-05-21T19:35:06.303Z,13.83
2019-05-21T19:37:34.858Z,15.83
2019-05-21T19:40:03.792Z,18.47
2019-05-21T19:42:32.387Z,16.53
2019-05-21T19:45:00.965Z,14.93
2019-05-21T19:47:29.543Z,18.40
2019-05-21T19:49:58.078Z,15.77
2019-05-21T19:52:26.655Z,15.70
2019-05-21T19:54:55.240Z,17.30
2019-05-21T19:57:25.598Z,15.53
2019-05-21T19:59:54.217Z,19.27
2019-05-21T20:02:22.908Z,18.97
2019-05-21T20:04:51.719Z,21.83
2019-05-21T20:07:21.645Z,19.07
2019-05-21T20:09:51.613Z,16.47
2019-05-21T20:12:20.828Z,19.40
2019-05-21T20:14:49.388Z,22.27
2019-05-21T20:17:18.179Z,17.10
2019-05-21T20:19:47.720Z,20.50
2019-05-21T20:22:16.925Z,23.77
2019-05-21T20:24:46.520Z,20.50
2019-05-21T20:27:15.528Z,21.30
2019-05-21T20:29:44.364Z,23.23
2019-05-21T20:32:14.168Z,20.03
2019-05-21T20:34:42.718Z,23.70
2019-05-21T20:37:12.999Z,22.50
2019-05-21T20:39:42.939Z,20.50
2019-05-21T20:42:13.081Z,20.47
2019-05-21T20:44:43.062Z,24.43
2019-05-21T20:47:13.469Z,21.70
2019-05-21T20:49:44.328Z,27.50
2019-05-21T20:52:18.703Z,27.40
2019-05-21T20:54:47.411Z,24.47
2019-05-21T20:57:16.920Z,26.70
2019-05-21T20:59:45.622Z,26.43
2019-05-21T21:02:14.538Z,21.33
2019-05-21T21:04:44.935Z,22.67
2019-05-21T21:07:14.657Z,23.63
2019-05-21T21:09:43.297Z,23.77
2019-05-21T21:12:12.659Z,24.87
2019-05-21T21:14:41.565Z,26.50
2019-05-21T21:17:11.491Z,24.73
2019-05-21T21:19:43.221Z,24.50
2019-05-21T21:22:11.800Z,18.60
2019-05-21T21:24:41.192Z,20.37
2019-05-21T21:27:11.740Z,19.10
2019-05-21T21:29:40.306Z,17.80
2019-05-21T21:32:09.125Z,17.33
2019-05-21T21:34:37.621Z,16.60
2019-05-21T21:37:06.982Z,15.37
2019-05-21T21:39:35.506Z,15.00
2019-05-21T21:42:05.534Z,16.30
2019-05-21T21:44:34.562Z,15.40
2019-05-21T21:47:03.412Z,16.27
2019-05-21T21:49:32.576Z,13.00
2019-05-21T21:52:03.748Z,12.00
2019-05-21T21:54:32.384Z,13.43
2019-05-21T21:57:01.039Z,13.77
2019-05-21T21:59:29.526Z,16.33
2019-05-21T22:02:01.673Z,13.47
2019-05-21T22:04:32.820Z,12.80
2019-05-21T22:07:01.829Z,15.97
2019-05-21T22:09:31.891Z,10.90
2019-05-21T22:12:02.464Z,11.93
2019-05-21T22:14:31.967Z,12.23
2019-05-21T22:17:00.855Z,10.10
2019-05-21T22:19:29.491Z,11.07
2019-05-21T22:21:58.113Z,9.80
2019-05-21T22:24:27.323Z,10.77
2019-05-21T22:26:56.007Z,9.93
2019-05-21T22:29:25.048Z,11.30
2019-05-21T22:31:53.634Z,12.17
2019-05-21T22:34:22.135Z,13.17
2019-05-21T22:36:50.760Z,13.53
2019-05-21T22:39:23.840Z,13.13
2019-05-21T22:41:52.552Z,10.67
2019-05-21T22:44:21.034Z,15.07
2019-05-21T22:46:50.163Z,13.13
2019-05-21T22:49:18.743Z,12.30
2019-05-21T22:51:47.350Z,11.00
2019-05-21T22:54:15.860Z,12.47
2019-05-21T22:56:44.416Z,12.70
2019-05-21T22:59:13.228Z,12.97
2019-05-21T23:01:42.777Z,11.07
2019-05-21T23:04:11.482Z,16.53
2019-05-21T23:06:41.334Z,15.10
2019-05-21T23:09:09.858Z,13.13
2019-05-21T23:11:38.402Z,12.23
2019-05-21T23:14:08.057Z,13.93
2019-05-21T23:16:36.679Z,11.87
2019-05-21T23:19:06.797Z,12.10
2019-05-21T23:21:35.437Z,13.17
2019-05-21T23:24:06.093Z,13.10
2019-05-21T23:26:34.925Z,12.43
2019-05-21T23:29:04.146Z,11.03
2019-05-21T23:31:32.778Z,11.07
2019-05-21T23:34:01.854Z,10.40
2019-05-21T23:36:30.772Z,9.90
2019-05-21T23:39:00.024Z,12.20
2019-05-21T23:41:29.964Z,12.67
2019-05-21T23:43:59.826Z,13.00
2019-05-21T23:46:29.729Z,14.20
2019-05-21T23:48:58.238Z,14.10
2019-05-21T23:51:26.810Z,12.07
2019-05-21T23:53:55.453Z,11.57
2019-05-21T23:56:24.229Z,12.10
2019-05-21T23:58:52.895Z,12.47
